createdAt,value
2023-05-22T00:02:28.306Z,55.7
2023-05-22T00:07:46.848Z,56.4
2023-05-22T00:13:05.396Z,56.8
2023-05-22T00:18:23.622Z,55.9
2023-05-22T00:23:41.934Z,56.3
2023-05-22T00:29:00.107Z,56.6
2023-05-22T00:34:18.647Z,56.5
2023-05-22T00:39:36.632Z,56.4
2023-05-22T00:44:54.988Z,56.4
2023-05-22T00:50:13.399Z,56.8
2023-05-22T00:55:31.535Z,55.9
2023-05-22T01:00:49.889Z,57.4
2023-05-22T01:06:08.389Z,57.1
2023-05-22T01:11:26.759Z,56.6
2023-05-22T01:16:45.243Z,56.1
2023-05-22T01:22:03.381Z,56.7
2023-05-22T01:27:21.710Z,57.3
2023-05-22T01:32:40.500Z,57.3
2023-05-22T01:37:58.693Z,57.4
2023-05-22T01:43:17.251Z,56.8
2023-05-22T01:48:35.810Z,56.3
2023-05-22T01:53:54.232Z,56.5
2023-05-22T01:59:12.763Z,57
2023-05-22T02:04:31.150Z,56.8
2023-05-22T02:09:49.656Z,56.3
2023-05-22T02:15:07.991Z,56.5
2023-05-22T02:20:26.149Z,56.9
2023-05-22T02:25:44.169Z,56.1
2023-05-22T02:31:02.728Z,56.5
2023-05-22T02:36:20.997Z,57
2023-05-22T02:41:39.366Z,56.2
2023-05-22T02:46:58.033Z,56
2023-05-22T02:52:16.499Z,56.4
2023-05-22T02:57:34.741Z,56.8
2023-05-22T03:02:53.156Z,57.2
2023-05-22T03:08:11.437Z,57.3
2023-05-22T03:13:29.915Z,56.5
2023-05-22T03:18:48.126Z,57.1
2023-05-22T03:24:06.291Z,57.3
2023-05-22T03:29:24.342Z,56.8
2023-05-22T03:34:42.957Z,56.6
2023-05-22T03:40:01.489Z,57.4
2023-05-22T03:45:19.962Z,57.3
2023-05-22T03:50:38.877Z,56.9
2023-05-22T03:55:57.178Z,56
2023-05-22T04:01:16.020Z,56.9
2023-05-22T04:06:34.177Z,56
2023-05-22T04:11:52.532Z,56.6
2023-05-22T04:17:10.931Z,56.7
2023-05-22T04:22:29.298Z,57
2023-05-22T04:27:47.447Z,56.1
2023-05-22T04:33:06.002Z,56.9
2023-05-22T04:38:24.331Z,52.5
2023-05-22T04:43:42.517Z,52.2
2023-05-22T04:49:00.762Z,52.4
2023-05-22T04:54:19.846Z,52.2
2023-05-22T04:59:38.312Z,52.8
2023-05-22T05:04:56.564Z,53.6
2023-05-22T05:10:14.923Z,53.5
2023-05-22T05:15:33.123Z,54.4
2023-05-22T05:20:51.500Z,53.9
2023-05-22T05:26:19.895Z,54.6
2023-05-22T05:31:38.358Z,54.9
2023-05-22T05:36:56.981Z,54.1
2023-05-22T05:42:16.212Z,54.4
2023-05-22T05:47:35.929Z,54.2
2023-05-22T05:52:54.825Z,54.9
2023-05-22T05:58:13.011Z,55.1
2023-05-22T06:03:31.898Z,55.1
2023-05-22T06:08:51.692Z,54.7
2023-05-22T06:14:09.734Z,54.5
2023-05-22T06:19:28.269Z,55
2023-05-22T06:24:52.630Z,55.2
2023-05-22T06:30:10.959Z,54.4
2023-05-22T06:35:29.523Z,54.7
2023-05-22T06:40:47.943Z,54.8
2023-05-22T06:46:06.503Z,55.2
2023-05-22T06:51:25.855Z,54.3
2023-05-22T06:56:44.163Z,54.5
2023-05-22T07:01:47.144Z,55.3
2023-05-22T07:07:05.610Z,55.3
2023-05-22T07:12:24.238Z,55.3
2023-05-22T07:17:42.581Z,55.4
2023-05-22T07:23:01.224Z,54.9
2023-05-22T07:28:20.200Z,54.3
2023-05-22T07:33:38.564Z,55.2
2023-05-22T07:38:56.907Z,55.2
2023-05-22T07:44:15.727Z,54.2
2023-05-22T07:49:34.403Z,54.6
2023-05-22T07:54:52.757Z,55.3
2023-05-22T08:00:11.497Z,54.1
2023-05-22T08:05:30.347Z,54.3
2023-05-22T08:11:05.160Z,53.6
2023-05-22T08:16:23.651Z,52
2023-05-22T08:21:42.263Z,52.4
2023-05-22T08:27:00.705Z,51.8
2023-05-22T08:32:19.170Z,51.7
2023-05-22T08:37:37.537Z,50.7
2023-05-22T08:42:56.301Z,51.8
2023-05-22T08:48:14.890Z,50.9
2023-05-22T08:53:33.129Z,50.2
2023-05-22T08:58:51.528Z,48.1
2023-05-22T09:04:10.038Z,47.5
2023-05-22T09:09:28.633Z,47.5
2023-05-22T09:14:47.167Z,47
2023-05-22T09:20:05.567Z,45.7
2023-05-22T09:25:24.344Z,44.7
2023-05-22T09:30:43.946Z,45.6
2023-05-22T09:36:02.840Z,46.9
2023-05-22T09:41:21.260Z,47.8
2023-05-22T09:46:39.587Z,47.9
2023-05-22T09:51:58.133Z,48.1
2023-05-22T09:57:16.757Z,48.3
2023-05-22T10:02:34.869Z,48.9
2023-05-22T10:07:53.060Z,48.2
2023-05-22T10:13:11.165Z,49.8
2023-05-22T10:18:29.284Z,49.2
2023-05-22T10:23:47.928Z,49.3
2023-05-22T10:29:06.278Z,49.4
2023-05-22T10:34:24.244Z,49.7
2023-05-22T10:39:43.175Z,49.7
2023-05-22T10:45:01.216Z,50.5
2023-05-22T10:50:19.619Z,50.9
2023-05-22T10:55:38.615Z,50.1
2023-05-22T11:00:57.141Z,50.9
2023-05-22T11:06:15.673Z,50.2
2023-05-22T11:11:34.604Z,50.4
2023-05-22T11:16:53.195Z,51.2
2023-05-22T11:22:11.423Z,50.9
2023-05-22T11:27:29.838Z,51
2023-05-22T11:32:48.396Z,51.4
2023-05-22T11:38:07.259Z,50.9
2023-05-22T11:43:25.865Z,50.8
2023-05-22T11:48:44.032Z,50.8
2023-05-22T11:54:02.525Z,51.6
2023-05-22T11:59:21.831Z,51.7
2023-05-22T12:04:40.234Z,50.8
2023-05-22T12:09:58.234Z,50.9
2023-05-22T12:15:16.981Z,50.8
2023-05-22T12:20:35.271Z,50.9
2023-05-22T12:25:53.390Z,51
2023-05-22T12:31:11.622Z,51.6
2023-05-22T12:36:29.937Z,50.9
2023-05-22T12:41:32.778Z,51
2023-05-22T12:46:51.638Z,51.1
2023-05-22T12:52:10.236Z,51.8
2023-05-22T12:57:28.758Z,51.3
2023-05-22T13:02:47.792Z,51.8
2023-05-22T13:08:06.701Z,51.7
2023-05-22T13:13:25.289Z,51.5
2023-05-22T13:18:44.105Z,52.3
2023-05-22T13:24:02.491Z,51.4
2023-05-22T13:29:20.659Z,51.3
2023-05-22T13:34:24.080Z,52.5
2023-05-22T13:39:42.657Z,52.8
2023-05-22T13:45:01.022Z,52.1
2023-05-22T13:50:19.628Z,49.8
2023-05-22T13:55:38.943Z,48.5
2023-05-22T14:00:57.503Z,46.9
2023-05-22T14:06:16.238Z,46.7
2023-05-22T14:11:34.858Z,46.5
2023-05-22T14:16:38.078Z,45.9
2023-05-22T14:21:41.287Z,46.8
2023-05-22T14:26:59.578Z,46.1
2023-05-22T14:32:17.795Z,46.3
2023-05-22T14:37:36.357Z,46.8
2023-05-22T14:42:54.989Z,47.4
2023-05-22T14:48:13.391Z,48.1
2023-05-22T14:53:32.014Z,49.1
2023-05-22T14:58:50.379Z,49.2
2023-05-22T15:03:52.913Z,48.8
2023-05-22T15:09:11.226Z,49
2023-05-22T15:14:30.009Z,49.5
2023-05-22T15:19:48.316Z,49.9
2023-05-22T15:25:06.871Z,48.9
2023-05-22T15:30:26.314Z,48.8
2023-05-22T15:35:44.651Z,49.2
2023-05-22T15:41:03.213Z,49.7
2023-05-22T15:46:22.208Z,49.4
2023-05-22T15:51:40.569Z,49
2023-05-22T15:56:59.135Z,49.1
2023-05-22T16:02:18.101Z,48.5
2023-05-22T16:07:36.463Z,50.3
2023-05-22T16:12:54.547Z,49.3
2023-05-22T16:18:13.002Z,49.7
2023-05-22T16:23:31.441Z,49.1
2023-05-22T16:28:50.187Z,49.4
2023-05-22T16:33:57.263Z,50.2
2023-05-22T16:39:15.426Z,51.7
2023-05-22T16:44:34.432Z,51.8
2023-05-22T16:49:53.421Z,52.1
2023-05-22T16:55:11.948Z,52
2023-05-22T17:00:30.966Z,51.4
2023-05-22T17:05:49.710Z,51.8
2023-05-22T17:11:07.832Z,52.1
2023-05-22T17:16:26.890Z,51.6
2023-05-22T17:21:45.234Z,52.3
2023-05-22T17:27:03.428Z,51.7
2023-05-22T17:32:22.949Z,52.8
2023-05-22T17:37:41.525Z,51.4
2023-05-22T17:43:00.366Z,52.1
2023-05-22T17:48:18.996Z,52
2023-05-22T17:53:40.252Z,50.8
2023-05-22T17:58:58.566Z,50.8
2023-05-22T18:04:17.580Z,51.2
2023-05-22T18:09:36.117Z,51.7
2023-05-22T18:14:54.693Z,51.7
2023-05-22T18:20:14.518Z,53.2
2023-05-22T18:25:32.844Z,53.8
2023-05-22T18:30:51.526Z,53.2
2023-05-22T18:36:10.407Z,53.5
2023-05-22T18:41:28.710Z,54.2
2023-05-22T18:46:47.614Z,53.7
2023-05-22T18:52:05.932Z,53.6
2023-05-22T18:57:24.517Z,54.3
2023-05-22T19:02:43.054Z,54.4
2023-05-22T19:08:01.954Z,54.6
2023-05-22T19:13:20.685Z,54.6
2023-05-22T19:18:39.029Z,53.8
2023-05-22T19:23:57.278Z,53.9
2023-05-22T19:29:15.827Z,54.6
2023-05-22T19:34:36.726Z,54
2023-05-22T19:39:55.607Z,54.8
2023-05-22T19:45:16.896Z,54.5
2023-05-22T19:50:35.424Z,55.1
2023-05-22T19:55:53.668Z,54.7
2023-05-22T20:01:12.550Z,54.6
2023-05-22T20:06:32.200Z,54.5
2023-05-22T20:11:50.805Z,53.8
2023-05-22T20:17:09.142Z,53.6
2023-05-22T20:22:27.459Z,53.9
2023-05-22T20:27:45.907Z,54.5
2023-05-22T20:33:04.718Z,53.9
2023-05-22T20:38:23.363Z,54.2
2023-05-22T20:43:42.009Z,54.5
2023-05-22T20:49:00.757Z,54
2023-05-22T20:54:19.458Z,55
2023-05-22T20:59:37.946Z,55.1
2023-05-22T21:04:56.571Z,54.4
2023-05-22T21:10:14.910Z,54.4
2023-05-22T21:15:33.729Z,54.3
2023-05-22T21:20:51.882Z,54.9
2023-05-22T21:26:10.644Z,55.5
2023-05-22T21:31:29.498Z,54.9
2023-05-22T21:36:47.882Z,55.4
2023-05-22T21:42:06.410Z,54.8
2023-05-22T21:47:25.467Z,55
2023-05-22T21:52:43.730Z,55.3
2023-05-22T21:58:02.072Z,56.1
2023-05-22T22:03:21.141Z,55.6
2023-05-22T22:08:39.988Z,56.3
2023-05-22T22:13:58.556Z,55.8
2023-05-22T22:19:17.194Z,56.8
2023-05-22T22:24:35.697Z,56.2
2023-05-22T22:29:53.840Z,57.1
2023-05-22T22:35:12.182Z,55.9
2023-05-22T22:40:30.513Z,56.3
2023-05-22T22:45:48.951Z,56.9
2023-05-22T22:51:07.561Z,57.3
2023-05-22T22:56:26.080Z,57.6
2023-05-22T23:01:44.400Z,57.7
2023-05-22T23:07:03.060Z,58.1
2023-05-22T23:12:21.191Z,57.6
2023-05-22T23:17:39.375Z,58
2023-05-22T23:22:57.847Z,58.4
2023-05-22T23:28:16.188Z,58.3
2023-05-22T23:33:34.546Z,57.7
2023-05-22T23:38:53.351Z,57.8
2023-05-22T23:44:11.841Z,57.8
2023-05-22T23:49:30.165Z,58.5
2023-05-22T23:54:48.869Z,58.1
